createdAt,value
2023-04-11T03:31:51.755Z,99.90
2023-04-11T03:42:28.047Z,99.90
2023-04-11T03:53:08.482Z,99.90
2023-04-11T04:03:45.098Z,99.90
2023-04-11T04:14:22.460Z,99.90
2023-04-11T04:24:58.412Z,99.90
2023-04-11T04:35:37.273Z,99.90
2023-04-11T04:46:14.979Z,99.90
2023-04-11T04:56:56.112Z,99.90
2023-04-11T05:07:32.899Z,99.90
2023-04-11T05:18:08.841Z,99.90
2023-04-11T05:28:44.746Z,99.90
2023-04-11T05:39:25.134Z,99.90
2023-04-11T05:50:01.220Z,99.90
2023-04-11T06:00:38.107Z,99.90
2023-04-11T06:11:13.535Z,99.90
2023-04-11T06:21:49.521Z,99.90
2023-04-11T06:32:25.520Z,99.90
2023-04-11T06:43:01.772Z,98.20
2023-04-11T06:53:37.755Z,87.70
2023-04-11T07:04:13.615Z,38.40
2023-04-11T07:14:49.279Z,48.70
2023-04-11T07:25:30.360Z,30.20
2023-04-11T07:36:06.759Z,19.30
2023-04-11T07:46:42.616Z,23.90
2023-04-11T07:57:18.264Z,28.70
2023-04-11T08:07:54.206Z,31.40
2023-04-11T08:18:29.858Z,31.30
2023-04-11T08:29:05.665Z,26.30
2023-04-11T08:39:41.603Z,23.40
2023-04-11T08:50:17.652Z,23.90
2023-04-11T09:00:53.392Z,1.00
2023-04-11T09:11:28.849Z,15.30
2023-04-11T09:22:06.025Z,1.00
2023-04-11T09:32:41.549Z,16.50
2023-04-11T09:43:18.961Z,17.10
2023-04-11T09:53:57.724Z,23.30
2023-04-11T10:04:34.503Z,5.70
2023-04-11T10:15:10.704Z,17.10
2023-04-11T10:25:55.306Z,26.20
2023-04-11T10:37:02.098Z,16.30
2023-04-11T10:47:37.794Z,11.70
2023-04-11T10:58:22.019Z,14.80
2023-04-11T11:08:58.930Z,11.00
2023-04-11T11:19:35.878Z,33.00
2023-04-11T11:30:12.169Z,24.00
2023-04-11T11:40:48.708Z,45.70
2023-04-11T11:51:24.652Z,45.80
2023-04-11T12:02:00.697Z,37.50
2023-04-11T12:12:38.648Z,18.70
2023-04-11T12:23:14.358Z,19.40
2023-04-11T12:33:49.783Z,14.80
2023-04-11T12:44:25.455Z,12.50
2023-04-11T12:55:01.342Z,10.20
2023-04-11T13:05:37.139Z,16.30
2023-04-11T13:16:13.147Z,14.30
2023-04-11T13:26:49.019Z,14.10
2023-04-11T13:37:24.683Z,12.10
2023-04-11T13:48:00.590Z,10.90
2023-04-11T13:58:38.023Z,12.50
2023-04-11T14:09:13.684Z,7.40
2023-04-11T14:19:49.419Z,4.70
2023-04-11T14:30:25.009Z,5.80
2023-04-11T14:41:00.677Z,5.40
2023-04-11T14:51:36.582Z,1.00
2023-04-11T15:02:13.267Z,1.00
2023-04-11T15:12:49.358Z,1.00
2023-04-11T15:23:26.016Z,1.00
2023-04-11T15:34:03.866Z,1.00
2023-04-11T15:44:39.785Z,1.00
2023-04-11T15:55:15.968Z,1.00
2023-04-11T16:05:52.887Z,1.00
2023-04-11T16:16:28.755Z,1.00
2023-04-11T16:27:04.654Z,1.00
2023-04-11T16:37:40.768Z,1.00
2023-04-11T16:48:16.500Z,1.00
2023-04-11T16:58:51.876Z,1.00
2023-04-11T17:09:27.713Z,1.00
2023-04-11T17:20:09.184Z,1.00
2023-04-11T17:30:47.027Z,1.00
2023-04-11T17:41:22.793Z,1.00
2023-04-11T17:51:59.627Z,1.00
2023-04-11T18:02:38.370Z,1.00
2023-04-11T18:13:14.855Z,1.00
2023-04-11T18:23:50.646Z,6.50
2023-04-11T18:34:26.451Z,8.30
2023-04-11T18:45:02.327Z,1.00
2023-04-11T18:55:38.628Z,1.00
2023-04-11T19:06:15.181Z,6.40
2023-04-11T19:16:50.654Z,4.60
2023-04-11T19:27:26.587Z,4.10
2023-04-11T19:38:05.575Z,1.00
2023-04-11T19:48:42.513Z,1.00
2023-04-11T19:59:18.508Z,1.00
2023-04-11T20:09:54.398Z,1.00
2023-04-11T20:20:33.372Z,1.00
2023-04-11T20:31:08.981Z,1.00
2023-04-11T20:41:45.328Z,1.00
2023-04-11T20:52:21.823Z,8.80
2023-04-11T21:02:57.816Z,10.30
2023-04-11T21:13:33.424Z,12.60
2023-04-11T21:24:09.302Z,13.40
